Time;durP1;ratioP1;P1;durP2;ratioP2;P2;SDS_P1;SDS_P2;PMS_P1;PMS_P2;Temp;Humidity;BMP_temperature;BMP_pressure;BME280_temperature;BME280_humidity;BME280_pressure;Samples;Min_cycle;Max_cycle;Signal;HPM_P1;HPM_P2
2021/03/10 07:00:22;;;;;;;25.88;11.93;;;;;;;;;;5088623;27;20445;-65
2021/03/10 07:02:48;;;;;;;33.95;11.88;;;;;;;;;;5100615;28;20081;-64
2021/03/10 07:05:14;;;;;;;20.52;10.73;;;;;;;;;;5099806;28;20032;-65
2021/03/10 07:07:41;;;;;;;23.88;10.73;;;;;;;;;;5107634;28;20081;-64
2021/03/10 07:10:07;;;;;;;35.60;15.23;;;;;;;;;;5100793;28;20009;-64
2021/03/10 07:12:32;;;;;;;22.05;10.90;;;;;;;;;;5100281;28;20012;-64
2021/03/10 07:15:00;;;;;;;18.40;10.18;;;;;;;;;;5109175;28;20096;-64
2021/03/10 07:17:26;;;;;;;21.17;10.73;;;;;;;;;;5080594;28;20019;-63
2021/03/10 07:19:52;;;;;;;23.27;11.45;;;;;;;;;;5103359;28;20023;-64
2021/03/10 07:22:20;;;;;;;22.13;11.05;;;;;;;;;;5107437;28;20019;-65
2021/03/10 07:24:56;;;;;;;21.98;10.25;;;;;;;;;;5108433;28;20061;-64
2021/03/10 07:27:23;;;;;;;19.27;11.18;;;;;;;;;;5105201;28;20966;-67
2021/03/10 07:29:52;;;;;;;22.73;11.65;;;;;;;;;;5101596;28;20399;-67
2021/03/10 07:32:22;;;;;;;27.52;10.88;;;;;;;;;;5104665;28;20031;-67
2021/03/10 07:34:59;;;;;;;23.17;11.40;;;;;;;;;;5106363;28;20387;-67
2021/03/10 07:37:24;;;;;;;27.08;12.02;;;;;;;;;;5104377;28;20016;-66
2021/03/10 07:39:49;;;;;;;23.73;10.95;;;;;;;;;;5100089;28;20206;-66
2021/03/10 07:42:16;;;;;;;24.75;10.57;;;;;;;;;;5100942;28;20039;-66
2021/03/10 07:44:42;;;;;;;22.98;10.68;;;;;;;;;;5100500;28;20024;-67
2021/03/10 07:47:10;;;;;;;20.10;10.88;;;;;;;;;;5096767;28;20365;-66
2021/03/10 07:49:35;;;;;;;18.58;10.63;;;;;;;;;;5106115;28;20480;-66
2021/03/10 07:52:03;;;;;;;24.75;10.98;;;;;;;;;;5107150;28;20111;-66
2021/03/10 07:54:29;;;;;;;22.00;11.38;;;;;;;;;;5090032;28;20019;-66
2021/03/10 07:57:04;;;;;;;28.40;11.48;;;;;;;;;;5100963;28;20028;-66
2021/03/10 07:59:29;;;;;;;32.10;12.50;;;;;;;;;;5099976;28;20035;-67
2021/03/10 08:02:04;;;;;;;30.58;10.95;;;;;;;;;;5105094;28;20117;-67
2021/03/10 08:04:29;;;;;;;22.60;10.77;;;;;;;;;;5104573;28;20012;-67
2021/03/10 08:06:55;;;;;;;26.58;10.65;;;;;;;;;;5103355;28;20148;-67
2021/03/10 08:09:22;;;;;;;22.67;11.13;;;;;;;;;;5103775;28;20020;-65
2021/03/10 08:11:49;;;;;;;19.20;10.10;;;;;;;;;;5091816;28;20012;-66
2021/03/10 08:14:24;;;;;;;30.15;12.25;;;;;;;;;;5092942;28;20020;-67
2021/03/10 08:16:54;;;;;;;20.15;12.23;;;;;;;;;;5091196;28;20387;-67
2021/03/10 08:19:21;;;;;;;25.00;12.53;;;;;;;;;;5091797;28;20077;-66
2021/03/10 08:21:49;;;;;;;26.65;12.63;;;;;;;;;;5092410;28;20659;-67
2021/03/10 08:24:14;;;;;;;26.38;11.75;;;;;;;;;;5092418;28;20049;-67
2021/03/10 08:26:40;;;;;;;19.85;11.88;;;;;;;;;;5086065;28;20024;-66
2021/03/10 08:29:06;;;;;;;22.15;11.65;;;;;;;;;;5093493;28;20012;-67
2021/03/10 08:31:43;;;;;;;17.13;9.50;;;;;;;;;;5091493;28;20031;-66
2021/03/10 08:34:09;;;;;;;19.83;9.90;;;;;;;;;;5092577;28;20022;-67
2021/03/10 08:36:35;;;;;;;25.48;10.80;;;;;;;;;;5091191;28;20016;-67
2021/03/10 08:39:06;;;;;;;21.05;11.80;;;;;;;;;;5090843;28;20472;-67
2021/03/10 08:41:41;;;;;;;17.92;10.20;;;;;;;;;;5091351;28;20043;-68
2021/03/10 08:44:07;;;;;;;18.48;11.07;;;;;;;;;;5091043;28;20012;-67
2021/03/10 08:46:37;;;;;;;22.52;11.45;;;;;;;;;;5092925;28;20034;-68
2021/03/10 08:49:02;;;;;;;17.10;10.23;;;;;;;;;;5092163;28;20384;-69
2021/03/10 08:51:28;;;;;;;20.02;10.73;;;;;;;;;;5091945;28;20024;-66
2021/03/10 08:54:03;;;;;;;27.60;12.88;;;;;;;;;;5091177;28;20020;-68
2021/03/10 08:56:29;;;;;;;21.27;10.85;;;;;;;;;;5091865;28;20031;-67
2021/03/10 08:58:54;;;;;;;23.55;11.10;;;;;;;;;;5092819;28;20052;-68
2021/03/10 09:01:20;;;;;;;23.80;11.25;;;;;;;;;;5090261;28;20016;-67
2021/03/10 09:03:45;;;;;;;22.33;11.93;;;;;;;;;;5091645;28;20487;-67
2021/03/10 09:06:20;;;;;;;26.15;11.88;;;;;;;;;;5090386;28;20119;-66
2021/03/10 09:08:53;;;;;;;25.55;11.25;;;;;;;;;;5089422;28;20026;-64
2021/03/10 09:11:20;;;;;;;22.08;9.57;;;;;;;;;;5083870;28;20451;-63
2021/03/10 09:13:45;;;;;;;22.35;11.43;;;;;;;;;;5090517;28;20111;-62
2021/03/10 09:16:11;;;;;;;19.02;8.75;;;;;;;;;;5092285;28;20028;-69
2021/03/10 09:18:36;;;;;;;21.80;10.48;;;;;;;;;;5090824;28;20102;-65
2021/03/10 09:21:03;;;;;;;19.15;10.27;;;;;;;;;;5092538;28;20016;-64
2021/03/10 09:23:29;;;;;;;31.23;9.43;;;;;;;;;;5089972;28;20398;-71
2021/03/10 09:25:55;;;;;;;21.98;9.90;;;;;;;;;;5071183;28;20017;-66
2021/03/10 09:28:20;;;;;;;15.45;8.48;;;;;;;;;;5076853;28;20027;-68
2021/03/10 09:30:47;;;;;;;20.50;8.13;;;;;;;;;;5084521;28;20562;-67
2021/03/10 09:33:17;;;;;;;19.95;9.25;;;;;;;;;;5090386;28;20361;-66
2021/03/10 09:35:42;;;;;;;;;;;;;;;;;;5091506;28;20341;-68
2021/03/10 09:38:09;;;;;;;19.90;7.47;;;;;;;;;;5090973;28;19908;-68
2021/03/10 09:40:38;;;;;;;18.90;8.25;;;;;;;;;;5090978;28;20727;-70
2021/03/10 09:43:05;;;;;;;14.85;7.75;;;;;;;;;;5085672;28;20108;-70
2021/03/10 09:45:32;;;;;;;13.50;8.02;;;;;;;;;;5081458;28;20020;-72
2021/03/10 09:47:58;;;;;;;13.57;8.90;;;;;;;;;;5088072;28;20012;-69
2021/03/10 09:50:33;;;;;;;25.25;9.07;;;;;;;;;;5089180;28;20046;-73
2021/03/10 09:52:59;;;;;;;17.70;8.43;;;;;;;;;;5089889;28;20132;-70
2021/03/10 09:55:25;;;;;;;15.25;8.57;;;;;;;;;;5089055;28;20020;-68
2021/03/10 09:58:00;;;;;;;14.20;7.50;;;;;;;;;;5090945;28;20189;-69
2021/03/10 10:00:32;;;;;;;12.80;6.72;;;;;;;;;;5090865;28;20508;-71
2021/03/10 10:03:05;;;;;;;10.88;6.88;;;;;;;;;;5091371;28;20507;-69
2021/03/10 10:05:35;;;;;;;18.08;8.27;;;;;;;;;;5088941;28;20021;-73
2021/03/10 10:08:01;;;;;;;;;;;;;;;;;;5077740;28;20085;-73
2021/03/10 10:10:26;;;;;;;14.10;7.67;;;;;;;;;;5089688;28;19958;-69
2021/03/10 10:12:53;;;;;;;11.93;6.50;;;;;;;;;;5090189;28;20278;-68
2021/03/10 10:15:20;;;;;;;11.93;6.93;;;;;;;;;;5090905;28;20380;-69
2021/03/10 10:17:46;;;;;;;16.63;7.82;;;;;;;;;;5090745;28;20099;-69
2021/03/10 11:50:55;;;;;;;15.88;7.85;;;;;;;;;;5079738;27;1143122;-67
2021/03/10 11:53:21;;;;;;;13.57;7.97;;;;;;;;;;5076833;28;20394;-68
2021/03/10 11:55:48;;;;;;;12.50;7.63;;;;;;;;;;5109302;28;20023;-70
2021/03/10 11:58:13;;;;;;;11.50;7.35;;;;;;;;;;5096303;28;20028;-67
2021/03/10 12:00:41;;;;;;;11.70;7.07;;;;;;;;;;5068861;28;20077;-66
2021/03/10 12:03:06;;;;;;;18.63;7.95;;;;;;;;;;5076500;28;20023;-68
2021/03/10 12:05:31;;;;;;;14.05;8.00;;;;;;;;;;5083623;28;20023;-71
2021/03/10 12:07:57;;;;;;;15.18;8.40;;;;;;;;;;5080412;28;20081;-65
2021/03/10 12:10:22;;;;;;;11.80;7.68;;;;;;;;;;5094952;28;20089;-69
2021/03/10 12:12:48;;;;;;;17.55;8.65;;;;;;;;;;5087011;28;20523;-69
2021/03/10 12:15:14;;;;;;;18.65;8.88;;;;;;;;;;5092698;28;20008;-69
2021/03/10 12:17:39;;;;;;;12.32;7.95;;;;;;;;;;5100939;28;20012;-68
2021/03/10 12:20:05;;;;;;;13.80;8.77;;;;;;;;;;5099566;28;20024;-66
2021/03/10 12:22:31;;;;;;;14.63;8.73;;;;;;;;;;5058255;28;20023;-69
2021/03/10 12:24:56;;;;;;;16.83;9.23;;;;;;;;;;5104938;28;20019;-67
2021/03/10 12:27:23;;;;;;;13.30;8.35;;;;;;;;;;5084297;28;20013;-65
2021/03/10 12:29:51;;;;;;;15.18;8.25;;;;;;;;;;5060224;28;20029;-66
2021/03/10 12:32:17;;;;;;;18.13;9.63;;;;;;;;;;5081378;28;20026;-69
2021/03/10 12:34:42;;;;;;;16.05;8.55;;;;;;;;;;5053382;28;20020;-69
2021/03/10 12:37:08;;;;;;;22.38;9.00;;;;;;;;;;5083362;28;20468;-69
2021/03/10 12:39:33;;;;;;;18.38;9.38;;;;;;;;;;5074888;28;20020;-69
2021/03/10 12:41:59;;;;;;;17.92;8.88;;;;;;;;;;5087455;28;20460;-68
2021/03/10 12:44:24;;;;;;;16.48;10.27;;;;;;;;;;5073903;28;20035;-66
2021/03/10 12:46:51;;;;;;;17.33;9.27;;;;;;;;;;5084239;28;20043;-66
2021/03/10 12:49:16;;;;;;;18.23;10.18;;;;;;;;;;5051386;28;20480;-62
2021/03/10 12:51:43;;;;;;;14.63;9.60;;;;;;;;;;5075895;28;20027;-67
2021/03/10 12:54:09;;;;;;;17.27;10.05;;;;;;;;;;5076165;28;20024;-64
2021/03/10 12:56:34;;;;;;;18.55;10.25;;;;;;;;;;5064790;28;20095;-68
2021/03/10 12:59:00;;;;;;;18.73;10.52;;;;;;;;;;5037170;28;20025;-62
2021/03/10 13:01:25;;;;;;;24.20;10.60;;;;;;;;;;5070186;28;20107;-64
2021/03/10 13:03:50;;;;;;;17.98;10.32;;;;;;;;;;5046563;28;20021;-65
2021/03/10 13:06:16;;;;;;;17.10;10.18;;;;;;;;;;5062859;28;20098;-65
2021/03/10 13:08:41;;;;;;;19.48;10.32;;;;;;;;;;5068770;28;20069;-66
2021/03/10 13:11:07;;;;;;;20.05;10.90;;;;;;;;;;5070147;28;20096;-64
2021/03/10 13:13:32;;;;;;;20.45;10.82;;;;;;;;;;5063470;28;20013;-66
2021/03/10 13:15:58;;;;;;;16.92;10.77;;;;;;;;;;5045637;28;20017;-69
2021/03/10 13:18:23;;;;;;;19.75;10.13;;;;;;;;;;5042782;28;20078;-64
2021/03/10 13:20:49;;;;;;;19.20;10.00;;;;;;;;;;5065828;28;20457;-65
2021/03/10 13:23:15;;;;;;;19.08;10.27;;;;;;;;;;5050509;28;20032;-65
2021/03/10 13:25:40;;;;;;;19.00;10.32;;;;;;;;;;5065151;28;20023;-66
2021/03/10 13:28:06;;;;;;;16.42;10.25;;;;;;;;;;5044241;28;20017;-65
2021/03/10 13:30:31;;;;;;;22.17;12.68;;;;;;;;;;5065194;28;20029;-68
2021/03/10 13:32:57;;;;;;;17.23;10.18;;;;;;;;;;5054531;28;20033;-64
2021/03/10 13:35:22;;;;;;;19.95;10.73;;;;;;;;;;5057708;28;20047;-66
2021/03/10 13:37:48;;;;;;;19.23;11.18;;;;;;;;;;5069384;28;20020;-64
2021/03/10 13:40:13;;;;;;;23.38;11.00;;;;;;;;;;5060073;28;20470;-65
2021/03/10 13:42:39;;;;;;;22.65;11.05;;;;;;;;;;5051363;28;20028;-65
2021/03/10 13:45:05;;;;;;;18.27;10.13;;;;;;;;;;5037166;28;20016;-66
2021/03/10 13:47:30;;;;;;;14.82;9.65;;;;;;;;;;5025516;28;20043;-66
2021/03/10 13:49:56;;;;;;;17.33;10.25;;;;;;;;;;5070014;28;20452;-67
2021/03/10 13:52:21;;;;;;;19.00;11.05;;;;;;;;;;5058437;28;20017;-66
2021/03/10 13:54:47;;;;;;;15.45;9.95;;;;;;;;;;5058654;28;20036;-63
2021/03/10 13:57:13;;;;;;;17.80;11.00;;;;;;;;;;5068022;28;20488;-67
2021/03/10 13:59:38;;;;;;;19.35;11.05;;;;;;;;;;5063909;28;20016;-68
2021/03/10 14:02:04;;;;;;;16.55;10.75;;;;;;;;;;5064244;28;20059;-66
2021/03/10 14:04:29;;;;;;;20.50;11.32;;;;;;;;;;5058056;28;20021;-67
2021/03/10 14:06:55;;;;;;;16.15;10.75;;;;;;;;;;5050195;28;20028;-65
2021/03/10 14:09:20;;;;;;;17.42;10.57;;;;;;;;;;5039724;28;20060;-65
2021/03/10 14:11:45;;;;;;;18.70;9.93;;;;;;;;;;5064952;28;20063;-66
2021/03/10 14:14:11;;;;;;;16.10;9.90;;;;;;;;;;5061062;28;20028;-65
2021/03/10 14:16:36;;;;;;;19.50;10.90;;;;;;;;;;5062000;28;20380;-66
2021/03/10 14:19:03;;;;;;;19.15;11.00;;;;;;;;;;5043330;28;20013;-66
2021/03/10 14:21:28;;;;;;;19.48;11.38;;;;;;;;;;5062548;28;20017;-66
2021/03/10 14:23:54;;;;;;;21.90;10.95;;;;;;;;;;5044509;28;20444;-66
2021/03/10 14:26:19;;;;;;;21.55;11.00;;;;;;;;;;5040917;28;20095;-67
2021/03/10 14:28:45;;;;;;;18.83;10.85;;;;;;;;;;5067727;28;20021;-66
2021/03/10 14:31:10;;;;;;;19.20;10.90;;;;;;;;;;5055680;28;20016;-67
2021/03/10 14:33:36;;;;;;;18.25;10.82;;;;;;;;;;5064760;28;20024;-66
2021/03/10 14:36:01;;;;;;;18.65;11.15;;;;;;;;;;5062338;28;20084;-68
2021/03/10 14:38:28;;;;;;;16.85;10.15;;;;;;;;;;5057347;28;20017;-66
2021/03/10 14:40:53;;;;;;;21.30;12.70;;;;;;;;;;5040132;28;20029;-67
2021/03/10 14:43:19;;;;;;;21.15;12.48;;;;;;;;;;5052688;28;20074;-66
2021/03/10 14:45:44;;;;;;;20.85;11.15;;;;;;;;;;5042743;28;20472;-65
2021/03/10 14:48:09;;;;;;;17.85;11.35;;;;;;;;;;5041273;28;20028;-66
2021/03/10 14:50:36;;;;;;;23.95;13.52;;;;;;;;;;5057513;28;20053;-64
2021/03/10 14:53:01;;;;;;;21.10;12.88;;;;;;;;;;5057696;28;20013;-65
2021/03/10 14:55:27;;;;;;;17.98;10.02;;;;;;;;;;5048687;28;20021;-67
2021/03/10 14:58:07;;;;;;;21.23;10.88;;;;;;;;;;5046234;28;20139;-66
2021/03/10 15:00:32;;;;;;;15.52;10.25;;;;;;;;;;5051723;28;20025;-66
2021/03/10 15:02:58;;;;;;;24.30;12.00;;;;;;;;;;5046940;28;20532;-67
2021/03/10 15:05:23;;;;;;;25.73;13.02;;;;;;;;;;5064262;28;20036;-65
2021/03/10 15:07:49;;;;;;;24.17;11.98;;;;;;;;;;5069020;28;20149;-68
2021/03/10 15:10:14;;;;;;;20.80;12.18;;;;;;;;;;5040541;28;20035;-65
2021/03/10 15:12:41;;;;;;;20.92;12.38;;;;;;;;;;5023450;28;20023;-66
2021/03/10 15:15:07;;;;;;;21.75;12.05;;;;;;;;;;5036491;28;20499;-66
2021/03/10 15:17:32;;;;;;;22.50;11.25;;;;;;;;;;5065026;28;20020;-68
2021/03/10 15:19:58;;;;;;;21.05;11.80;;;;;;;;;;5059404;28;20377;-66
2021/03/10 15:22:23;;;;;;;26.00;11.70;;;;;;;;;;5047003;28;20392;-65
2021/03/10 15:24:49;;;;;;;21.80;11.43;;;;;;;;;;5069513;28;20121;-64
2021/03/10 15:27:14;;;;;;;21.13;12.15;;;;;;;;;;5019354;28;20013;-64
2021/03/10 15:29:40;;;;;;;19.38;11.00;;;;;;;;;;5062194;28;20028;-64
2021/03/10 15:32:06;;;;;;;24.60;12.75;;;;;;;;;;5026196;28;20005;-64
2021/03/10 15:34:32;;;;;;;20.27;11.60;;;;;;;;;;5066296;28;20116;-67
2021/03/10 15:36:57;;;;;;;21.27;11.60;;;;;;;;;;5053838;28;20060;-65
2021/03/10 15:39:23;;;;;;;22.23;12.13;;;;;;;;;;5064464;28;20468;-64
2021/03/10 15:41:49;;;;;;;25.90;12.05;;;;;;;;;;5061045;28;20107;-67
2021/03/10 15:44:15;;;;;;;21.27;11.80;;;;;;;;;;5058552;28;20531;-65
2021/03/10 15:46:40;;;;;;;21.80;11.30;;;;;;;;;;5067171;28;20028;-65
2021/03/10 15:49:06;;;;;;;21.55;12.45;;;;;;;;;;5036833;28;20056;-65
2021/03/10 15:51:31;;;;;;;22.27;12.40;;;;;;;;;;5046552;28;20092;-65
2021/03/10 15:53:57;;;;;;;24.48;11.95;;;;;;;;;;5061540;28;20456;-64
2021/03/10 15:56:23;;;;;;;24.23;13.35;;;;;;;;;;5057861;28;20020;-65
2021/03/10 15:58:51;;;;;;;21.67;11.57;;;;;;;;;;5052935;28;20423;-66
2021/03/10 16:01:17;;;;;;;22.33;11.18;;;;;;;;;;5055898;28;20145;-64
2021/03/10 16:03:43;;;;;;;22.10;12.20;;;;;;;;;;5063424;28;20009;-66
2021/03/10 16:06:09;;;;;;;27.15;12.30;;;;;;;;;;5062623;28;20028;-64
2021/03/10 16:08:36;;;;;;;24.58;11.10;;;;;;;;;;5038232;28;20092;-65
2021/03/10 16:11:01;;;;;;;24.25;11.38;;;;;;;;;;5050137;28;20033;-65
2021/03/10 16:13:28;;;;;;;26.10;11.35;;;;;;;;;;5057200;28;20526;-66
2021/03/10 16:15:53;;;;;;;24.58;10.65;;;;;;;;;;5043733;28;20028;-65
2021/03/10 16:18:19;;;;;;;28.60;11.88;;;;;;;;;;5063998;28;20025;-66
2021/03/10 16:20:44;;;;;;;23.83;13.18;;;;;;;;;;5053965;28;20032;-64
2021/03/10 16:23:10;;;;;;;25.73;12.00;;;;;;;;;;5067493;28;20376;-65
2021/03/10 16:25:36;;;;;;;26.42;13.63;;;;;;;;;;5057909;28;20032;-65
2021/03/10 16:28:02;;;;;;;30.88;13.93;;;;;;;;;;5042144;28;20021;-65
2021/03/10 16:30:29;;;;;;;28.70;13.43;;;;;;;;;;5064814;28;20024;-64
2021/03/10 16:32:55;;;;;;;22.42;12.63;;;;;;;;;;5054182;28;20074;-65
2021/03/10 16:35:21;;;;;;;31.05;15.52;;;;;;;;;;5065644;28;20013;-66
2021/03/10 16:37:46;;;;;;;37.45;16.95;;;;;;;;;;5063600;28;20020;-64
2021/03/10 16:40:12;;;;;;;37.08;17.42;;;;;;;;;;5062092;28;20017;-66
2021/03/10 16:42:37;;;;;;;36.47;17.40;;;;;;;;;;5070211;28;20044;-66
2021/03/10 16:45:04;;;;;;;51.10;22.60;;;;;;;;;;5058247;28;20024;-65
2021/03/10 16:47:33;;;;;;;39.20;18.83;;;;;;;;;;5067978;28;20583;-67
2021/03/10 16:50:00;;;;;;;35.42;17.05;;;;;;;;;;5064567;28;20075;-65
2021/03/10 16:52:25;;;;;;;46.17;19.75;;;;;;;;;;5042572;28;20079;-65
